Texarkana Regional Webb Field
KTXK : now visible

Aeroporto :











RITROVATECI SU...

 
LOGIN :

Iscrizione | Disclaimer

   EN    FR    IT 

 









Sommario :    VFR   VFR Marginale   IFR   IFR Intensivo   IFR Molto Intensivo
Visibilità : 
Base nubi : 
>= 8 km
>= 3000ft
5 / 8 km
1000 / 3000 ft
1500m / 5 km
500 / 1000 ft
800 / 1500m
200 / 500 ft
< 800m
< 200 ft
Simboli :   Temporali  Nebbia  Neve Forte  Precipitazioni Forti  Vento > 20 kt






- Altitudine del aeroporto : 390 ft
- Codice IATA : TXK


KTXK - Texarkana Regional Webb Field

ULTIMO METAR :
  • 111353Z 19004KT 10SM FEW055 29/24 A3005 RMK AO2 SLP172 T02890244

METARs OBSOLETI :
  • 111253Z 20003KT 10SM SCT055 27/24 A3005 RMK AO2 SLP171 T02720244
  • 111153Z 00000KT 5SM BR CLR 24/23 A3003 RMK AO2 SLP164 T02390233 10261 20233 53012

TAF KTXK
Valido dal 11 a 12 ore il 12 a 12 ore UTC


111152Z 1112/1212 VRB03KT 6SM BR FEW250
TEMPO 1112/1113 00000KT 4SM BR
FM111600 23007KT P6SM FEW045 SCT250
FM120500 VRB03KT P6SM SCT250
FM121000 VRB10G15KT P6SM VCTS BKN050CB BKN250
FIR KZFW / America del Nord



MetMap, La meteo Aeronautica in un colpo d'occhio ! - Copyright ORBIFLY Dicembre 2007 - Disclaimer

ORBIFLY MET'MAP TEAM :

Programmazione e sviluppo : Alexandra Zaïnal
Concezione : Baudouin d'Aumeries
Aiuto per la programmazione : Marc-Olivier Méhu
Supporto tecnico e logistico : Manuel Goepfert
Aiuto per la traduzione : Arnaldo La Scala

Contatto : metmap@orbifly.com




FONTI E CREDITI :

   NOAA       Earth
Advisory